Time;durP1;ratioP1;P1;durP2;ratioP2;P2;SDS_P1;SDS_P2;PMS_P1;PMS_P2;Temp;Humidity;BMP_temperature;BMP_pressure;BME280_temperature;BME280_humidity;BME280_pressure;Samples;Min_cycle;Max_cycle;Signal;HPM_P1;HPM_P2
2024/01/09 00:00:11;;;;;;;21.93;13.30;;;;;;;0.13;47.61;98237.38;5024697;28;20553;-68
2024/01/09 00:02:37;;;;;;;25.53;13.00;;;;;;;0.17;47.72;98245.81;5048046;28;20748;-70
2024/01/09 00:05:02;;;;;;;20.03;12.20;;;;;;;0.30;48.14;98239.25;5039374;28;20184;-68
2024/01/09 00:07:28;;;;;;;22.13;12.80;;;;;;;0.29;47.47;98242.75;5042941;28;20186;-68
2024/01/09 00:09:53;;;;;;;20.40;12.53;;;;;;;0.24;47.34;98242.13;5050091;28;20210;-67
2024/01/09 00:12:19;;;;;;;19.60;12.73;;;;;;;0.23;47.96;98245.59;5055510;28;20190;-68
2024/01/09 00:14:44;;;;;;;20.40;12.90;;;;;;;0.23;47.64;98250.75;5045691;28;20720;-68
2024/01/09 00:17:09;;;;;;;20.13;11.20;;;;;;;0.27;47.86;98247.13;5049868;28;20238;-68
2024/01/09 00:19:35;;;;;;;20.93;12.20;;;;;;;0.31;47.23;98243.53;5053301;28;20326;-70
2024/01/09 00:22:02;;;;;;;19.40;12.33;;;;;;;0.25;46.83;98239.47;5052960;28;20187;-68
2024/01/09 00:24:28;;;;;;;24.97;13.87;;;;;;;0.20;46.99;98235.38;5039879;28;20194;-68
2024/01/09 00:26:53;;;;;;;17.50;11.97;;;;;;;0.23;47.24;98240.44;5041723;28;20792;-69
2024/01/09 00:29:18;;;;;;;21.07;12.00;;;;;;;0.24;46.91;98242.13;5048976;28;20210;-69
2024/01/09 00:31:44;;;;;;;18.93;12.23;;;;;;;0.23;47.37;98243.00;5050908;28;20239;-69
2024/01/09 00:34:09;;;;;;;20.00;13.17;;;;;;;0.24;47.54;98239.53;5037953;28;20248;-68
2024/01/09 00:36:43;;;;;;;18.97;12.00;;;;;;;0.22;46.78;98238.75;5047784;28;20265;-69
2024/01/09 00:39:10;;;;;;;20.27;12.10;;;;;;;0.21;46.59;98237.91;5040650;28;20198;-69
2024/01/09 00:41:36;;;;;;;23.70;13.50;;;;;;;0.21;46.60;98231.91;5002419;28;20425;-68
2024/01/09 00:44:01;;;;;;;19.80;11.97;;;;;;;0.11;46.81;98245.19;5056354;28;20973;-70
2024/01/09 00:46:30;;;;;;;18.93;12.87;;;;;;;0.11;47.08;98244.34;5045730;28;20266;-70
2024/01/09 00:48:55;;;;;;;16.57;10.20;;;;;;;0.10;46.92;98235.78;5049453;28;20291;-68
2024/01/09 00:51:21;;;;;;;17.80;11.30;;;;;;;0.19;47.04;98238.88;5049227;28;20458;-68
2024/01/09 00:53:46;;;;;;;19.37;12.00;;;;;;;0.18;46.54;98239.75;5049555;28;20195;-69
2024/01/09 00:56:11;;;;;;;21.80;12.43;;;;;;;0.12;46.42;98238.28;5049332;28;20539;-67
2024/01/09 00:58:37;;;;;;;22.70;13.27;;;;;;;0.15;46.39;98233.00;5053947;28;20308;-68
2024/01/09 01:01:03;;;;;;;20.67;12.70;;;;;;;-0.07;46.41;98236.44;5050139;28;20183;-68
2024/01/09 01:03:29;;;;;;;19.37;12.27;;;;;;;0.04;46.25;98240.34;5039328;28;20241;-67
2024/01/09 01:05:54;;;;;;;22.07;12.20;;;;;;;0.02;46.56;98230.06;5045571;28;20471;-69
2024/01/09 01:08:21;;;;;;;24.07;13.27;;;;;;;0.02;46.30;98236.97;5055474;28;20422;-70
2024/01/09 01:10:47;;;;;;;18.40;11.73;;;;;;;-0.02;46.60;98244.81;5040506;28;20187;-68
2024/01/09 01:13:12;;;;;;;19.90;12.27;;;;;;;-0.14;46.42;98241.91;5041362;28;21303;-68
2024/01/09 01:15:37;;;;;;;19.30;11.53;;;;;;;-0.12;46.19;98245.22;5047389;28;20465;-68
2024/01/09 01:18:03;;;;;;;24.17;12.43;;;;;;;-0.06;46.61;98242.41;5041992;28;20307;-72
2024/01/09 01:20:30;;;;;;;22.00;11.50;;;;;;;-0.02;46.54;98251.72;5033365;28;20736;-69
2024/01/09 01:22:55;;;;;;;18.47;11.47;;;;;;;-0.18;45.71;98246.31;5045801;28;20508;-69
2024/01/09 01:25:21;;;;;;;20.93;12.20;;;;;;;-0.02;46.47;98251.72;5047910;28;20209;-68
2024/01/09 01:27:46;;;;;;;19.80;12.53;;;;;;;0.06;46.43;98254.81;5052499;28;20233;-69
2024/01/09 01:30:12;;;;;;;20.37;12.17;;;;;;;0.05;45.99;98253.16;5037079;28;20741;-69
2024/01/09 01:32:37;;;;;;;20.70;12.90;;;;;;;0.08;45.96;98258.19;5038959;28;20214;-69
2024/01/09 01:35:03;;;;;;;19.23;11.70;;;;;;;0.18;46.05;98262.97;5046186;28;20187;-68
2024/01/09 01:37:29;;;;;;;22.03;12.37;;;;;;;0.14;45.48;98262.25;5047956;28;20206;-69
2024/01/09 01:39:54;;;;;;;22.53;11.63;;;;;;;0.19;45.55;98259.50;5058554;28;20183;-69
2024/01/09 01:42:20;;;;;;;18.60;11.57;;;;;;;0.12;45.67;98259.75;5042178;28;20503;-68
2024/01/09 01:44:45;;;;;;;20.73;11.90;;;;;;;0.18;45.60;98258.66;5047641;28;20190;-69
2024/01/09 01:47:11;;;;;;;20.70;12.07;;;;;;;0.13;44.92;98263.97;5040035;28;20194;-69
2024/01/09 01:49:37;;;;;;;23.03;12.93;;;;;;;0.06;45.81;98270.28;5049691;28;20179;-69
2024/01/09 01:52:03;;;;;;;19.47;12.37;;;;;;;0.03;45.67;98260.09;5052211;28;20194;-69
2024/01/09 01:54:28;;;;;;;17.53;11.20;;;;;;;0.02;45.28;98262.75;5044813;28;20441;-71
2024/01/09 01:56:54;;;;;;;21.50;12.30;;;;;;;0.02;45.88;98257.59;5042833;28;20214;-68
2024/01/09 01:59:22;;;;;;;24.37;12.57;;;;;;;0.03;45.11;98260.09;5057785;28;20571;-69
2024/01/09 02:01:47;;;;;;;21.63;11.57;;;;;;;0.01;45.54;98256.72;5043865;28;20180;-69
2024/01/09 02:04:13;;;;;;;18.00;11.93;;;;;;;-0.03;45.62;98260.34;5042867;28;20467;-68
2024/01/09 02:06:38;;;;;;;17.20;11.37;;;;;;;-0.10;45.50;98262.34;5040186;28;20179;-69
2024/01/09 02:09:04;;;;;;;18.37;11.47;;;;;;;-0.09;45.63;98261.44;5050860;28;20184;-70
2024/01/09 02:11:30;;;;;;;22.80;13.20;;;;;;;-0.19;45.86;98258.38;5042544;28;20187;-68
2024/01/09 02:13:55;;;;;;;18.80;12.50;;;;;;;-0.13;46.03;98265.03;5047575;28;20218;-68
2024/01/09 02:16:21;;;;;;;18.90;12.50;;;;;;;-0.13;45.57;98254.72;5046439;28;20954;-68
2024/01/09 02:18:46;;;;;;;21.67;12.97;;;;;;;-0.12;45.90;98260.69;5046731;28;20226;-69
2024/01/09 02:21:12;;;;;;;20.60;12.10;;;;;;;-0.13;45.60;98261.63;5060076;28;20190;-68
2024/01/09 02:23:38;;;;;;;22.17;12.87;;;;;;;-0.13;46.02;98259.88;5047882;28;20206;-69
2024/01/09 02:26:04;;;;;;;23.27;13.37;;;;;;;-0.13;45.61;98259.03;5057322;28;20194;-69
2024/01/09 02:28:50;;;;;;;24.13;12.90;;;;;;;-0.18;45.32;98262.63;5048294;28;20425;-68
2024/01/09 02:31:16;;;;;;;22.50;11.73;;;;;;;-0.13;45.17;98259.03;5046795;28;20235;-68
2024/01/09 02:33:44;;;;;;;21.70;12.77;;;;;;;-0.23;45.26;98261.13;5044875;28;20457;-68
2024/01/09 02:36:09;;;;;;;22.70;12.73;;;;;;;-0.25;45.47;98253.44;5042239;28;20184;-69
2024/01/09 02:38:35;;;;;;;19.53;11.50;;;;;;;-0.28;45.54;98247.56;5047205;28;21071;-69
2024/01/09 02:41:00;;;;;;;22.73;13.40;;;;;;;-0.24;45.32;98249.97;5037732;28;20283;-68
2024/01/09 02:43:25;;;;;;;21.97;12.37;;;;;;;-0.24;45.54;98252.53;5040197;28;20242;-68
2024/01/09 02:45:51;;;;;;;21.50;12.33;;;;;;;-0.27;45.27;98247.53;5050391;28;20175;-68
2024/01/09 02:48:16;;;;;;;21.27;12.43;;;;;;;-0.29;45.46;98241.59;5054876;28;20651;-67
2024/01/09 02:50:42;;;;;;;23.90;12.60;;;;;;;-0.30;45.66;98245.06;5057497;28;20252;-68
2024/01/09 02:53:07;;;;;;;21.93;12.10;;;;;;;-0.27;45.43;98252.69;5044608;28;20203;-69
2024/01/09 02:55:33;;;;;;;23.03;13.07;;;;;;;-0.29;45.38;98240.72;5059584;28;20286;-68
2024/01/09 02:57:58;;;;;;;22.33;12.57;;;;;;;-0.25;45.63;98239.72;5046647;28;20207;-68
2024/01/09 03:00:24;;;;;;;20.77;12.00;;;;;;;-0.32;45.52;98244.28;5037962;28;20201;-69
2024/01/09 03:02:49;;;;;;;22.30;12.23;;;;;;;-0.27;45.42;98232.06;5030615;28;20762;-68
2024/01/09 03:05:15;;;;;;;20.47;11.70;;;;;;;-0.38;45.58;98236.78;5049931;28;20223;-68
2024/01/09 03:07:40;;;;;;;21.40;11.37;;;;;;;-0.32;45.58;98239.13;5034457;28;20701;-69
2024/01/09 03:10:07;;;;;;;24.17;12.67;;;;;;;-0.28;45.60;98230.38;5043173;28;20487;-67
2024/01/09 03:12:32;;;;;;;20.50;12.90;;;;;;;-0.25;45.50;98234.56;5030992;28;20211;-69
2024/01/09 03:14:58;;;;;;;18.73;11.60;;;;;;;-0.25;45.23;98243.13;5058571;28;20476;-70
2024/01/09 03:17:23;;;;;;;22.93;12.13;;;;;;;-0.27;45.40;98239.78;5046238;28;20246;-69
2024/01/09 03:19:49;;;;;;;24.77;12.57;;;;;;;-0.35;45.15;98240.09;5057890;28;20222;-70
2024/01/09 03:22:14;;;;;;;20.40;12.13;;;;;;;-0.33;45.59;98242.59;5056446;28;20184;-68
2024/01/09 03:24:39;;;;;;;20.80;12.53;;;;;;;-0.29;44.95;98239.00;5041519;28;20258;-69
2024/01/09 03:27:05;;;;;;;20.53;11.53;;;;;;;-0.20;45.34;98233.50;5057470;28;20261;-69
2024/01/09 03:29:30;;;;;;;24.23;13.50;;;;;;;-0.29;45.11;98231.28;5050420;28;20187;-69
2024/01/09 03:31:56;;;;;;;22.57;12.93;;;;;;;-0.32;45.25;98231.38;5048039;28;20678;-68
2024/01/09 03:34:21;;;;;;;22.07;12.33;;;;;;;-0.31;45.55;98230.50;5058169;28;20279;-67
2024/01/09 03:36:47;;;;;;;19.97;12.30;;;;;;;-0.29;45.51;98228.69;5041102;28;20196;-67
2024/01/09 03:39:14;;;;;;;20.67;11.93;;;;;;;-0.26;45.17;98236.31;5049366;28;20345;-70
2024/01/09 03:41:41;;;;;;;20.70;12.40;;;;;;;-0.33;45.31;98230.56;5048300;28;20270;-68
2024/01/09 03:44:07;;;;;;;21.03;11.77;;;;;;;-0.31;45.23;98235.66;5037215;28;20441;-68
2024/01/09 03:46:32;;;;;;;30.83;12.17;;;;;;;-0.33;44.89;98232.28;5051143;28;20964;-68
2024/01/09 03:48:58;;;;;;;19.30;11.80;;;;;;;-0.24;45.02;98231.91;5050852;28;20216;-69
2024/01/09 03:51:23;;;;;;;21.23;12.73;;;;;;;-0.29;44.48;98236.44;5054021;28;20179;-69
2024/01/09 03:53:48;;;;;;;19.30;11.50;;;;;;;-0.25;44.85;98232.81;5056389;28;20213;-68
2024/01/09 03:56:14;;;;;;;22.50;12.00;;;;;;;-0.23;45.14;98233.59;5046362;28;20448;-68
2024/01/09 03:58:39;;;;;;;21.90;11.60;;;;;;;-0.21;44.11;98234.38;5049600;28;20733;-70
2024/01/09 04:01:05;;;;;;;26.33;12.40;;;;;;;-0.13;44.01;98238.41;5049543;28;20284;-69
2024/01/09 04:03:30;;;;;;;21.10;11.90;;;;;;;-0.20;44.19;98238.66;5040717;28;20264;-68
2024/01/09 04:05:56;;;;;;;20.57;12.00;;;;;;;-0.20;44.63;98230.91;5052837;28;20267;-68
2024/01/09 04:08:21;;;;;;;24.57;13.40;;;;;;;-0.12;44.47;98240.06;5045808;28;20970;-69
2024/01/09 04:10:46;;;;;;;23.17;11.70;;;;;;;-0.18;44.50;98236.00;5061598;28;20229;-70
2024/01/09 04:13:12;;;;;;;18.50;11.20;;;;;;;-0.14;44.64;98229.00;5058300;28;20206;-71
2024/01/09 04:15:38;;;;;;;20.70;12.10;;;;;;;-0.25;43.73;98229.41;5039622;28;20191;-69
2024/01/09 04:18:04;;;;;;;19.83;11.50;;;;;;;-0.39;44.04;98232.53;5054507;28;20700;-68
2024/01/09 04:20:29;;;;;;;20.93;11.30;;;;;;;-0.41;44.13;98234.31;5047706;28;20418;-69
2024/01/09 04:22:54;;;;;;;20.97;12.27;;;;;;;-0.50;44.02;98232.94;5054482;28;20701;-69
2024/01/09 04:25:20;;;;;;;22.60;11.67;;;;;;;-0.45;44.47;98232.75;5062149;28;20182;-69
2024/01/09 04:27:55;;;;;;;23.53;12.10;;;;;;;-0.48;44.32;98239.69;5045591;28;20219;-67
2024/01/09 04:30:20;;;;;;;18.83;11.73;;;;;;;-0.49;44.34;98237.19;5036644;28;20183;-70
2024/01/09 04:32:46;;;;;;;21.33;11.13;;;;;;;-0.42;44.98;98242.94;5043876;28;20457;-69
2024/01/09 04:35:11;;;;;;;21.93;12.30;;;;;;;-0.49;44.40;98248.31;5052732;28;20335;-68
2024/01/09 04:37:36;;;;;;;22.63;12.33;;;;;;;-0.37;44.38;98241.03;5047654;28;20290;-70
2024/01/09 04:40:02;;;;;;;19.40;11.50;;;;;;;-0.38;44.37;98240.19;5053805;28;20207;-68
2024/01/09 04:42:28;;;;;;;21.27;11.53;;;;;;;-0.36;44.54;98233.25;5060109;28;20637;-68
2024/01/09 04:44:53;;;;;;;19.43;11.53;;;;;;;-0.34;44.41;98239.19;5043949;28;20211;-68
2024/01/09 04:47:19;;;;;;;17.93;10.90;;;;;;;-0.38;44.20;98229.06;5049893;28;20207;-68
2024/01/09 04:49:45;;;;;;;20.60;10.90;;;;;;;-0.45;44.37;98237.91;5048543;28;20175;-71
2024/01/09 04:52:10;;;;;;;20.33;11.57;;;;;;;-0.40;44.21;98234.25;5048561;28;20417;-70
2024/01/09 04:54:38;;;;;;;23.13;12.90;;;;;;;-0.39;43.99;98235.13;5048119;28;20183;-69
2024/01/09 04:57:04;;;;;;;18.43;10.87;;;;;;;-0.45;43.92;98235.31;5044717;28;20899;-69
2024/01/09 04:59:29;;;;;;;16.47;10.20;;;;;;;-0.42;44.06;98230.06;5045248;28;20273;-68
2024/01/09 05:01:55;;;;;;;21.37;11.67;;;;;;;-0.41;43.93;98235.16;5056295;28;20221;-69
2024/01/09 05:04:20;;;;;;;20.07;11.70;;;;;;;-0.50;44.00;98232.94;5050056;28;20202;-70
2024/01/09 05:06:45;;;;;;;21.90;11.83;;;;;;;-0.40;43.80;98231.69;5045337;28;20718;-69
2024/01/09 05:09:11;;;;;;;21.40;11.73;;;;;;;-0.44;44.39;98230.09;5049032;28;20573;-69
2024/01/09 05:11:37;;;;;;;22.50;11.80;;;;;;;-0.41;44.14;98232.56;5039536;28;20225;-70
2024/01/09 05:14:02;;;;;;;18.97;12.20;;;;;;;-0.24;43.77;98231.91;5046463;28;20241;-70
2024/01/09 05:16:28;;;;;;;20.10;11.60;;;;;;;-0.28;43.78;98235.53;5048814;28;20277;-68
2024/01/09 05:18:53;;;;;;;22.40;11.17;;;;;;;-0.39;43.48;98229.97;5046979;28;21490;-68
2024/01/09 05:21:19;;;;;;;22.00;11.53;;;;;;;-0.55;43.68;98233.09;5060603;28;20223;-68
2024/01/09 05:23:45;;;;;;;20.80;11.60;;;;;;;-0.48;43.78;98236.28;5053520;28;20293;-69
2024/01/09 05:26:10;;;;;;;19.10;10.90;;;;;;;-0.53;43.26;98241.63;5048342;28;20197;-69
2024/01/09 05:28:36;;;;;;;23.57;13.13;;;;;;;-0.54;43.53;98244.25;5012555;28;20189;-70
2024/01/09 05:31:02;;;;;;;33.90;18.27;;;;;;;-0.51;44.25;98244.97;5049724;28;20517;-68
2024/01/09 05:33:27;;;;;;;20.30;11.70;;;;;;;-0.58;44.41;98243.50;5056310;28;20198;-68
2024/01/09 05:35:53;;;;;;;18.90;10.93;;;;;;;-0.64;43.88;98248.91;5043198;28;20190;-69
2024/01/09 05:38:18;;;;;;;19.57;11.30;;;;;;;-0.61;43.96;98246.19;5032133;28;20191;-69
2024/01/09 05:40:44;;;;;;;23.10;12.10;;;;;;;-0.51;44.05;98236.41;5040452;28;20179;-68
2024/01/09 05:43:09;;;;;;;21.33;12.27;;;;;;;-0.55;43.99;98243.41;5039443;28;20198;-69
2024/01/09 05:45:35;;;;;;;20.33;11.50;;;;;;;-0.57;44.24;98245.19;5013857;28;20193;-69
2024/01/09 05:48:00;;;;;;;17.80;11.13;;;;;;;-0.53;43.84;98245.91;5011384;28;20184;-70
2024/01/09 05:50:25;;;;;;;24.50;11.70;;;;;;;-0.54;43.71;98247.66;4989598;28;20750;-68
2024/01/09 05:52:51;;;;;;;19.30;10.63;;;;;;;-0.54;43.45;98245.09;5039176;28;20234;-68
2024/01/09 05:55:16;;;;;;;19.37;11.13;;;;;;;-0.57;44.01;98250.34;5055342;28;20178;-70
2024/01/09 05:57:42;;;;;;;22.77;11.90;;;;;;;-0.44;43.60;98250.72;5056930;28;20248;-68
2024/01/09 06:00:08;;;;;;;23.33;11.83;;;;;;;-0.40;43.38;98246.31;5050798;28;20277;-68
2024/01/09 06:02:34;;;;;;;20.70;11.20;;;;;;;-0.39;43.46;98258.31;5058943;28;20256;-69
2024/01/09 06:04:59;;;;;;;19.23;10.97;;;;;;;-0.38;43.48;98257.41;5045686;28;20433;-69
2024/01/09 06:07:25;;;;;;;16.90;10.33;;;;;;;-0.36;43.08;98259.00;5042135;28;20176;-68
2024/01/09 06:09:50;;;;;;;17.67;11.13;;;;;;;-0.44;43.19;98253.28;5055126;28;20274;-69
2024/01/09 06:12:16;;;;;;;18.10;11.43;;;;;;;-0.55;43.63;98258.88;5049940;28;20707;-69
2024/01/09 06:14:41;;;;;;;16.60;9.90;;;;;;;-0.54;43.93;98260.53;5050646;28;20192;-68
2024/01/09 06:17:06;;;;;;;20.70;11.23;;;;;;;-0.41;43.91;98260.09;5061108;28;20199;-67
2024/01/09 06:19:32;;;;;;;20.87;10.80;;;;;;;-0.48;43.92;98260.31;5056195;28;20206;-68
2024/01/09 06:21:57;;;;;;;20.33;11.50;;;;;;;-0.50;44.07;98261.25;5056786;28;20695;-68
2024/01/09 06:24:23;;;;;;;20.60;11.50;;;;;;;-0.49;43.58;98257.78;5058335;28;20637;-68
2024/01/09 06:26:48;;;;;;;17.70;10.97;;;;;;;-0.44;43.91;98255.03;5053422;28;20183;-68
2024/01/09 06:29:14;;;;;;;27.93;12.83;;;;;;;-0.48;43.42;98260.31;5047852;28;20262;-69
2024/01/09 06:31:40;;;;;;;26.43;12.73;;;;;;;-0.53;43.29;98266.53;5068280;28;20182;-69
2024/01/09 06:34:06;;;;;;;25.00;12.37;;;;;;;-0.42;43.97;98266.13;5061217;28;20687;-68
2024/01/09 06:36:32;;;;;;;26.00;13.13;;;;;;;-0.43;43.67;98261.88;5057401;28;20466;-68
2024/01/09 06:38:57;;;;;;;20.33;10.90;;;;;;;-0.43;43.80;98261.88;5053015;28;20210;-67
2024/01/09 06:41:22;;;;;;;23.90;12.77;;;;;;;-0.38;43.85;98262.56;5054954;28;20222;-69
2024/01/09 06:43:49;;;;;;;28.83;13.73;;;;;;;-0.38;43.55;98267.72;5056586;28;20194;-68
2024/01/09 06:46:14;;;;;;;23.43;12.73;;;;;;;-0.44;43.36;98268.75;5059403;28;20733;-69
2024/01/09 06:48:40;;;;;;;26.03;13.57;;;;;;;-0.35;43.38;98262.41;5058452;28;20412;-68
2024/01/09 06:51:05;;;;;;;24.13;12.00;;;;;;;-0.43;43.67;98261.88;5043000;28;20261;-67
2024/01/09 06:53:30;;;;;;;32.27;16.27;;;;;;;-0.43;43.44;98267.03;5050503;28;20235;-67
2024/01/09 06:55:56;;;;;;;23.57;12.17;;;;;;;-0.58;43.57;98265.88;5041051;28;20212;-68
2024/01/09 06:58:22;;;;;;;23.43;12.87;;;;;;;-0.49;43.76;98270.69;5050657;28;20196;-69
2024/01/09 07:00:47;;;;;;;18.63;11.43;;;;;;;-0.42;43.38;98272.13;5058179;28;20439;-70
2024/01/09 07:03:14;;;;;;;21.10;11.93;;;;;;;-0.40;43.15;98274.66;5050195;28;20207;-69
2024/01/09 07:05:40;;;;;;;21.77;12.40;;;;;;;-0.43;43.78;98272.19;5048128;28;20544;-69
2024/01/09 07:08:05;;;;;;;21.57;12.70;;;;;;;-0.39;43.50;98272.00;5052164;28;20712;-68
2024/01/09 07:10:31;;;;;;;28.17;12.73;;;;;;;-0.33;43.87;98273.50;5050345;28;20179;-69
2024/01/09 07:12:56;;;;;;;19.70;12.10;;;;;;;-0.53;43.84;98266.53;5060584;28;20202;-69
2024/01/09 07:15:22;;;;;;;15.30;10.33;;;;;;;-0.40;43.99;98277.22;5050128;28;20187;-71
2024/01/09 07:17:47;;;;;;;29.13;11.63;;;;;;;-0.40;43.76;98277.22;5052223;28;20361;-69
2024/01/09 07:20:13;;;;;;;21.00;12.43;;;;;;;-0.36;43.55;98286.50;5053046;28;20283;-69
2024/01/09 07:22:38;;;;;;;24.70;12.17;;;;;;;-0.42;43.87;98282.41;5050650;28;20203;-69
2024/01/09 07:25:04;;;;;;;19.50;11.63;;;;;;;-0.42;43.85;98279.00;5049256;28;20705;-67
2024/01/09 07:27:30;;;;;;;22.20;11.90;;;;;;;-0.39;43.47;98278.91;5057121;28;20175;-70
2024/01/09 07:29:55;;;;;;;21.67;11.50;;;;;;;-0.51;43.57;98283.63;5064064;28;20178;-70
2024/01/09 07:32:21;;;;;;;21.73;11.47;;;;;;;-0.53;43.82;98287.97;5053595;28;20202;-68
2024/01/09 07:34:48;;;;;;;26.83;11.80;;;;;;;-0.47;43.83;98277.44;5045464;28;20187;-69
2024/01/09 07:37:13;;;;;;;17.37;10.77;;;;;;;-0.40;43.80;98282.38;5036828;28;20182;-69
2024/01/09 07:39:39;;;;;;;21.23;11.53;;;;;;;-0.41;43.14;98285.84;5033430;28;20431;-69
2024/01/09 07:42:04;;;;;;;23.27;12.97;;;;;;;-0.41;43.35;98296.16;5037932;28;20183;-68
2024/01/09 07:44:30;;;;;;;21.83;12.50;;;;;;;-0.50;43.13;98285.28;5046648;28;20951;-69
2024/01/09 07:46:56;;;;;;;22.50;12.40;;;;;;;-0.56;43.47;98293.25;5048189;28;20755;-68
2024/01/09 07:49:21;;;;;;;21.23;11.77;;;;;;;-0.41;43.69;98294.41;5041146;28;20509;-68
2024/01/09 07:51:47;;;;;;;22.50;11.33;;;;;;;-0.44;42.88;98288.53;5042259;28;20197;-69
2024/01/09 07:54:12;;;;;;;19.97;11.57;;;;;;;-0.32;43.31;98296.66;5047404;28;20607;-71
2024/01/09 07:56:37;;;;;;;25.43;11.80;;;;;;;-0.30;43.29;98309.47;5042916;28;20290;-70
2024/01/09 07:59:03;;;;;;;26.80;12.10;;;;;;;-0.35;43.23;98303.63;5046545;28;20298;-68
2024/01/09 08:01:30;;;;;;;30.67;12.30;;;;;;;-0.40;42.60;98297.84;5038360;28;20194;-69
2024/01/09 08:03:55;;;;;;;20.83;11.90;;;;;;;-0.36;42.69;98299.38;5047277;28;20675;-69
2024/01/09 08:06:21;;;;;;;22.80;12.77;;;;;;;-0.34;42.71;98305.31;5033208;28;20500;-69
2024/01/09 08:08:46;;;;;;;21.43;12.67;;;;;;;-0.37;42.99;98300.28;5055271;28;20261;-69
2024/01/09 08:11:12;;;;;;;35.53;12.90;;;;;;;-0.28;42.90;98304.25;5042344;28;20551;-70
2024/01/09 08:13:37;;;;;;;24.27;11.47;;;;;;;-0.14;42.60;98307.16;5039726;28;20730;-69
2024/01/09 08:16:03;;;;;;;22.03;11.50;;;;;;;-0.04;42.29;98303.31;5036479;28;20444;-69
2024/01/09 08:18:29;;;;;;;21.50;11.47;;;;;;;-0.05;42.43;98308.53;5036797;28;20214;-70
2024/01/09 08:20:55;;;;;;;22.90;12.40;;;;;;;-0.09;42.15;98307.84;5035251;28;20435;-69
2024/01/09 08:23:24;;;;;;;23.07;11.43;;;;;;;-0.03;42.12;98311.91;5036083;28;20208;-69
2024/01/09 08:25:49;;;;;;;23.13;11.90;;;;;;;-0.09;41.74;98309.56;5045529;28;20436;-70
2024/01/09 08:28:14;;;;;;;21.70;11.93;;;;;;;-0.02;41.95;98304.09;5038836;28;20422;-71
2024/01/09 08:30:40;;;;;;;20.57;11.60;;;;;;;0.11;42.13;98308.78;5034490;28;20354;-69
2024/01/09 08:33:06;;;;;;;21.77;13.07;;;;;;;0.17;41.69;98307.72;5033627;28;20670;-69
2024/01/09 08:35:31;;;;;;;25.93;12.93;;;;;;;0.10;41.41;98309.69;5039833;28;20175;-68
2024/01/09 08:37:57;;;;;;;23.50;12.70;;;;;;;0.09;41.35;98305.44;5037694;28;20849;-69
2024/01/09 08:40:22;;;;;;;20.70;11.67;;;;;;;0.16;41.41;98304.31;5031337;28;20679;-68
2024/01/09 08:42:48;;;;;;;23.87;12.07;;;;;;;0.26;41.12;98307.34;5044665;28;20206;-70
2024/01/09 08:45:14;;;;;;;25.53;13.10;;;;;;;0.41;41.45;98309.31;5028530;28;20207;-69
2024/01/09 08:47:41;;;;;;;33.97;13.70;;;;;;;0.36;40.95;98312.97;5040211;28;20194;-70
2024/01/09 08:50:06;;;;;;;22.47;12.17;;;;;;;0.65;41.24;98311.78;5033516;28;20838;-69
2024/01/09 08:52:32;;;;;;;25.30;13.43;;;;;;;0.87;40.61;98308.34;5047354;28;20572;-68
2024/01/09 08:54:57;;;;;;;21.10;11.90;;;;;;;0.96;39.58;98304.50;5047552;28;20223;-69
2024/01/09 08:57:22;;;;;;;27.13;12.60;;;;;;;1.01;39.85;98303.41;5031687;28;20732;-70
2024/01/09 08:59:48;;;;;;;24.53;12.63;;;;;;;1.13;40.08;98311.56;5041917;28;20191;-68
2024/01/09 09:02:14;;;;;;;22.57;12.60;;;;;;;1.27;40.11;98304.03;5040744;28;20269;-69
2024/01/09 09:04:39;;;;;;;22.27;12.07;;;;;;;1.31;39.54;98297.84;5039254;28;20577;-68
2024/01/09 09:07:05;;;;;;;24.20;12.37;;;;;;;1.49;40.19;98296.19;5054172;28;20186;-69
2024/01/09 09:09:33;;;;;;;24.43;12.10;;;;;;;1.46;39.33;98305.81;5036709;28;20198;-69
2024/01/09 09:11:59;;;;;;;20.60;11.80;;;;;;;1.57;38.92;98297.59;5037668;28;20237;-68
2024/01/09 09:14:24;;;;;;;20.27;11.87;;;;;;;1.80;38.74;98296.53;5036067;28;20485;-69
2024/01/09 09:16:50;;;;;;;25.00;13.40;;;;;;;1.97;38.61;98300.91;5049006;28;20227;-68
2024/01/09 09:19:17;;;;;;;19.80;12.40;;;;;;;2.11;38.41;98295.13;5030685;28;20667;-68
2024/01/09 09:21:43;;;;;;;19.70;11.60;;;;;;;2.37;37.83;98303.38;5041806;28;20918;-68
2024/01/09 09:24:09;;;;;;;23.13;12.80;;;;;;;2.54;37.58;98299.97;5038175;28;20461;-69
2024/01/09 09:26:35;;;;;;;24.60;13.70;;;;;;;2.80;36.93;98308.22;5052669;28;20192;-69
2024/01/09 09:29:00;;;;;;;20.23;12.80;;;;;;;2.93;36.08;98301.50;5036846;28;20418;-69
2024/01/09 09:31:26;;;;;;;23.93;14.60;;;;;;;3.22;35.87;98307.78;5034047;28;20187;-71
2024/01/09 09:33:51;;;;;;;25.30;13.53;;;;;;;3.42;35.14;98308.50;4991527;28;20579;-68
2024/01/09 09:36:17;;;;;;;24.77;13.10;;;;;;;3.72;34.96;98302.63;5035946;28;20180;-68
2024/01/09 09:38:42;;;;;;;23.40;13.13;;;;;;;4.09;34.33;98307.56;5035861;28;21098;-69
2024/01/09 09:41:08;;;;;;;22.33;12.90;;;;;;;4.27;34.15;98300.53;5043386;28;20759;-68
2024/01/09 09:43:37;;;;;;;23.43;13.37;;;;;;;4.29;33.67;98296.91;5046905;28;20229;-69
2024/01/09 09:46:03;;;;;;;23.93;13.03;;;;;;;4.55;33.84;98293.75;5036929;28;20210;-70
2024/01/09 09:48:31;;;;;;;21.17;12.70;;;;;;;4.74;32.32;98293.53;5043580;28;20546;-69
2024/01/09 09:50:57;;;;;;;23.80;13.40;;;;;;;4.78;32.24;98295.03;5031331;28;20437;-69
2024/01/09 09:53:24;;;;;;;24.03;13.20;;;;;;;5.17;32.16;98293.63;5045838;28;20457;-68
2024/01/09 09:55:50;;;;;;;19.33;12.27;;;;;;;5.54;31.92;98299.19;5044142;28;20249;-70
2024/01/09 09:58:16;;;;;;;21.07;12.07;;;;;;;5.77;31.68;98289.13;5049147;28;20818;-69
2024/01/09 10:00:43;;;;;;;22.43;13.87;;;;;;;6.04;31.05;98284.94;5047627;28;20418;-69
2024/01/09 10:03:11;;;;;;;20.83;13.00;;;;;;;6.32;31.04;98277.94;5050851;28;20202;-70
2024/01/09 10:05:38;;;;;;;23.50;14.93;;;;;;;6.44;30.39;98283.22;5049597;28;20425;-68
2024/01/09 10:08:07;;;;;;;23.87;13.30;;;;;;;6.73;29.55;98277.88;5053179;28;20423;-68
2024/01/09 10:10:32;;;;;;;21.87;13.87;;;;;;;6.97;29.49;98274.56;5055747;28;20487;-68
2024/01/09 10:12:58;;;;;;;23.40;13.87;;;;;;;7.04;29.43;98274.97;5054994;28;20494;-69
2024/01/09 10:15:24;;;;;;;25.03;13.97;;;;;;;7.21;29.49;98266.81;5048945;28;20190;-70
2024/01/09 10:17:49;;;;;;;25.23;13.93;;;;;;;7.14;28.21;98269.94;5054236;28;20809;-68
2024/01/09 10:20:18;;;;;;;25.23;14.77;;;;;;;6.98;28.66;98276.22;5047491;28;20190;-69
2024/01/09 10:22:43;;;;;;;23.43;13.73;;;;;;;7.47;28.54;98265.97;5046570;28;20445;-68
2024/01/09 10:25:10;;;;;;;29.20;14.53;;;;;;;7.40;28.13;98269.94;5049597;28;20187;-68
2024/01/09 10:27:37;;;;;;;20.10;13.00;;;;;;;7.62;28.41;98266.66;5049948;28;20186;-68
2024/01/09 10:30:07;;;;;;;20.57;13.70;;;;;;;7.96;27.60;98267.75;5054717;28;20774;-68
2024/01/09 10:32:33;;;;;;;23.97;14.17;;;;;;;7.99;28.35;98269.28;5059323;28;20517;-71
2024/01/09 10:34:58;;;;;;;23.77;14.30;;;;;;;8.17;26.72;98264.50;5052241;28;20432;-70
2024/01/09 10:37:24;;;;;;;21.53;13.63;;;;;;;8.41;26.82;98266.28;5048207;28;21164;-68
2024/01/09 10:39:50;;;;;;;23.40;12.50;;;;;;;8.18;26.85;98260.13;5040521;28;20176;-69
2024/01/09 10:42:15;;;;;;;23.90;13.60;;;;;;;7.66;27.31;98252.47;5024917;28;20595;-69
2024/01/09 10:44:41;;;;;;;21.40;13.97;;;;;;;7.67;27.43;98256.75;5059056;28;20218;-71
2024/01/09 10:47:10;;;;;;;19.00;12.40;;;;;;;7.82;27.61;98250.44;5053562;28;20192;-69
2024/01/09 10:49:40;;;;;;;25.23;14.03;;;;;;;7.94;27.15;98263.56;5040643;28;20592;-71
2024/01/09 10:52:16;;;;;;;21.87;13.37;;;;;;;8.09;27.02;98252.00;5046763;28;20429;-69
2024/01/09 10:54:44;;;;;;;23.33;13.63;;;;;;;8.03;26.23;98257.69;5024907;28;20438;-70
2024/01/09 10:57:16;;;;;;;21.97;13.57;;;;;;;7.93;26.59;98256.69;5051989;28;20568;-69
2024/01/09 10:59:44;;;;;;;23.23;15.00;;;;;;;7.87;27.03;98247.53;5043713;28;20430;-70
2024/01/09 11:02:15;;;;;;;23.13;13.80;;;;;;;7.90;26.97;98246.44;5047623;28;20487;-70
2024/01/09 11:04:43;;;;;;;25.67;13.50;;;;;;;8.22;27.04;98251.97;5038967;28;20445;-68
2024/01/09 11:07:14;;;;;;;28.43;13.67;;;;;;;8.22;26.26;98246.75;5049630;28;20933;-68
2024/01/09 11:09:41;;;;;;;24.40;13.30;;;;;;;8.23;26.91;98252.78;5039283;28;20428;-69
2024/01/09 11:12:09;;;;;;;25.93;14.23;;;;;;;8.58;26.84;98244.16;5039061;28;20422;-70